Time;durP1;ratioP1;P1;durP2;ratioP2;P2;SDS_P1;SDS_P2;PMS_P1;PMS_P2;Temp;Humidity;BMP_temperature;BMP_pressure;BME280_temperature;BME280_humidity;BME280_pressure;Samples;Min_cycle;Max_cycle;Signal;HPM_P1;HPM_P2
2021/12/18 00:00:37;;;;;;;;;;;0.00;90.10;;;;;;6069911;23;19924;-79
2021/12/18 00:03:05;;;;;;;;;;;0.00;90.30;;;;;;6043131;23;19953;-78
2021/12/18 00:05:32;;;;;;;;;;;-0.10;90.10;;;;;;6044125;23;20335;-79
2021/12/18 00:07:59;;;;;;;;;;;-0.10;90.50;;;;;;6043525;23;19917;-79
2021/12/18 00:10:26;;;;;;;;;;;-0.10;90.70;;;;;;6044948;23;19977;-78
2021/12/18 00:12:53;;;;;;;;;;;-0.10;90.50;;;;;;6042780;23;19918;-80
2021/12/18 00:15:20;;;;;;;;;;;-0.10;90.60;;;;;;6043762;23;19928;-77
2021/12/18 00:17:48;;;;;;;;;;;-0.10;90.70;;;;;;6043742;23;19961;-78
2021/12/18 00:20:16;;;;;;;;;;;-0.10;90.70;;;;;;6068641;23;19921;-76
2021/12/18 00:22:43;;;;;;;;;;;-0.10;90.70;;;;;;6043889;23;19917;-79
2021/12/18 00:25:10;;;;;;;;;;;0.00;91.50;;;;;;6043244;23;19929;-77
2021/12/18 00:27:37;;;;;;;;;;;0.10;91.80;;;;;;6045234;23;19966;-79
2021/12/18 00:30:05;;;;;;;;;;;0.10;91.60;;;;;;6042097;23;19918;-80
2021/12/18 00:32:32;;;;;;;;;;;0.10;91.50;;;;;;6044055;23;19917;-80
2021/12/18 00:34:58;;;;;;;;;;;0.10;91.50;;;;;;6043092;23;19917;-80
2021/12/18 00:37:25;;;;;;;;;;;0.10;91.20;;;;;;6044890;23;20347;-79
2021/12/18 00:39:55;;;;;;;;;;;0.00;90.70;;;;;;6042524;23;20343;-80
2021/12/18 00:45:09;;;;;;;;;;;-0.30;90.30;;;;;;6069047;23;19969;-80
2021/12/18 00:47:36;;;;;;;;;;;-0.40;90.50;;;;;;6042938;23;19961;-79
2021/12/18 00:50:05;;;;;;;;;;;-0.70;90.20;;;;;;6044241;23;19964;-77
2021/12/18 00:52:32;;;;;;;;;;;-0.70;90.40;;;;;;6045104;23;19918;-77
2021/12/18 00:54:59;;;;;;;;;;;-0.70;90.40;;;;;;6044086;23;19925;-77
2021/12/18 00:57:26;;;;;;;;;;;-0.70;90.50;;;;;;6046026;23;19953;-78
2021/12/18 00:59:58;;;;;;;;;;;-0.70;90.40;;;;;;6069254;23;20388;-78
2021/12/18 01:02:26;;;;;;;;;;;-0.80;90.30;;;;;;6044430;23;20232;-80
2021/12/18 01:04:53;;;;;;;;;;;-0.80;90.10;;;;;;6044174;23;19918;-80
2021/12/18 01:07:20;;;;;;;;;;;-0.90;90.10;;;;;;6043474;23;20255;-80
2021/12/18 01:10:02;;;;;;;;;;;-0.90;90.10;;;;;;6043954;23;19917;-78
2021/12/18 01:12:36;;;;;;;;;;;-0.90;90.10;;;;;;6042371;23;19924;-78
2021/12/18 01:23:11;;;;;;;;;;;-1.00;90.10;;;;;;6068222;23;20332;-77
2021/12/18 01:25:38;;;;;;;;;;;-1.00;90.10;;;;;;6042865;23;19969;-79
2021/12/18 01:28:05;;;;;;;;;;;-1.00;89.90;;;;;;6044781;23;19949;-79
2021/12/18 01:30:32;;;;;;;;;;;-1.00;90.50;;;;;;6044298;23;19918;-78
2021/12/18 01:32:59;;;;;;;;;;;-1.00;90.70;;;;;;6068817;23;19925;-78
2021/12/18 01:35:26;;;;;;;;;;;-1.00;90.50;;;;;;6068904;23;19918;-78
2021/12/18 01:37:53;;;;;;;;;;;-1.10;90.40;;;;;;6069397;23;19917;-77
2021/12/18 01:40:21;;;;;;;;;;;-1.10;90.70;;;;;;6041828;23;19969;-78
2021/12/18 01:53:32;;;;;;;;;;;-1.20;90.60;;;;;;6067886;23;19946;-79
2021/12/18 01:55:59;;;;;;;;;;;-1.30;90.50;;;;;;6042280;23;20395;-78
2021/12/18 01:58:26;;;;;;;;;;;-1.30;90.70;;;;;;6042080;23;19925;-79
2021/12/18 02:00:53;;;;;;;;;;;-1.20;90.50;;;;;;6042701;23;20387;-78
2021/12/18 02:03:21;;;;;;;;;;;-1.30;90.40;;;;;;6043135;23;19921;-77
2021/12/18 02:05:50;;;;;;;;;;;-1.30;90.50;;;;;;6043770;23;19972;-78
2021/12/18 02:08:21;;;;;;;;;;;-1.30;90.40;;;;;;6043086;23;19917;-77
2021/12/18 02:10:54;;;;;;;;;;;-1.30;90.40;;;;;;6044034;23;19917;-77
2021/12/18 02:21:12;;;;;;;;;;;-1.30;90.40;;;;;;6068018;23;19918;-77
2021/12/18 02:23:39;;;;;;;;;;;-1.30;90.30;;;;;;6043523;23;19917;-81
2021/12/18 02:26:06;;;;;;;;;;;-1.40;90.20;;;;;;6019314;23;19921;-77
2021/12/18 02:28:33;;;;;;;;;;;-1.40;90.10;;;;;;6069839;23;19918;-79
2021/12/18 02:31:00;;;;;;;;;;;-1.40;90.20;;;;;;6043825;23;19921;-80
2021/12/18 02:33:27;;;;;;;;;;;-1.40;90.30;;;;;;6044340;23;19921;-78
2021/12/18 02:35:56;;;;;;;;;;;-1.40;90.10;;;;;;6043671;23;19949;-80
2021/12/18 02:38:31;;;;;;;;;;;-1.40;90.10;;;;;;6044793;23;19929;-78
2021/12/18 02:43:34;;;;;;;;;;;-1.40;89.70;;;;;;6068908;23;19925;-81
2021/12/18 02:46:06;;;;;;;;;;;-1.40;89.60;;;;;;6043204;23;19917;-78
2021/12/18 02:48:34;;;;;;;;;;;-1.50;90.00;;;;;;6044494;23;19928;-77
2021/12/18 02:51:02;;;;;;;;;;;-1.60;90.40;;;;;;6069654;23;20339;-77
2021/12/18 02:53:28;;;;;;;;;;;-1.60;90.20;;;;;;6044458;23;19921;-80
2021/12/18 02:55:56;;;;;;;;;;;-1.60;90.00;;;;;;6043695;23;19942;-78
2021/12/18 02:58:23;;;;;;;;;;;-1.60;90.10;;;;;;6043605;23;19929;-81
2021/12/18 03:00:51;;;;;;;;;;;-1.60;90.00;;;;;;6068399;23;19942;-80
2021/12/18 03:03:19;;;;;;;;;;;-1.60;90.20;;;;;;6043681;23;19928;-79
2021/12/18 03:05:51;;;;;;;;;;;-1.70;89.90;;;;;;6043822;23;19917;-77
2021/12/18 03:08:32;;;;;;;;;;;-1.70;89.80;;;;;;6044357;23;19925;-78
2021/12/18 03:24:33;;;;;;;;;;;-1.80;90.10;;;;;;6068765;23;20478;-77
2021/12/18 03:27:00;;;;;;;;;;;-1.80;90.30;;;;;;6044123;23;19921;-77
2021/12/18 03:29:27;;;;;;;;;;;-1.80;90.50;;;;;;6043366;23;19917;-77
2021/12/18 03:31:54;;;;;;;;;;;-1.80;90.70;;;;;;6043602;23;20332;-77
2021/12/18 03:34:21;;;;;;;;;;;-1.80;90.90;;;;;;6043162;23;19921;-78
2021/12/18 03:36:50;;;;;;;;;;;-1.90;90.60;;;;;;6044110;23;19922;-78
2021/12/18 03:39:17;;;;;;;;;;;-1.90;90.60;;;;;;6043135;23;20404;-78
2021/12/18 03:41:50;;;;;;;;;;;-1.90;90.70;;;;;;6042196;23;19917;-78
2021/12/18 03:44:17;;;;;;;;;;;-1.90;90.70;;;;;;6068675;23;20339;-78
2021/12/18 03:46:44;;;;;;;;;;;-1.90;90.50;;;;;;6068575;23;20362;-80
2021/12/18 03:49:10;;;;;;;;;;;-1.90;90.50;;;;;;6042889;23;19921;-77
2021/12/18 03:51:37;;;;;;;;;;;-1.90;90.50;;;;;;6044283;23;19976;-79
2021/12/18 03:54:04;;;;;;;;;;;-1.90;90.80;;;;;;6043753;23;19917;-78
2021/12/18 03:56:31;;;;;;;;;;;-1.90;90.60;;;;;;6043977;23;19981;-79
2021/12/18 03:58:58;;;;;;;;;;;-1.90;91.20;;;;;;6068809;23;19944;-80
2021/12/18 04:01:25;;;;;;;;;;;-1.90;91.20;;;;;;6043541;23;19918;-79
2021/12/18 04:03:52;;;;;;;;;;;-1.90;90.80;;;;;;6043533;23;20248;-78
2021/12/18 04:06:20;;;;;;;;;;;-1.90;90.80;;;;;;6043475;23;19917;-78
2021/12/18 04:08:47;;;;;;;;;;;-1.90;91.00;;;;;;6044648;23;19922;-77
2021/12/18 04:11:14;;;;;;;;;;;-1.90;90.90;;;;;;6043662;23;19988;-77
2021/12/18 04:13:44;;;;;;;;;;;-1.90;90.80;;;;;;6044056;23;19917;-80
2021/12/18 04:16:12;;;;;;;;;;;-1.90;90.80;;;;;;6042364;23;19962;-81
2021/12/18 04:18:39;;;;;;;;;;;-1.90;90.70;;;;;;6043869;23;19922;-78
2021/12/18 04:21:05;;;;;;;;;;;-1.90;90.60;;;;;;6042732;23;19921;-79
2021/12/18 04:23:32;;;;;;;;;;;-1.90;90.60;;;;;;6043430;23;19923;-77
2021/12/18 04:25:59;;;;;;;;;;;-1.90;90.50;;;;;;6043595;23;20374;-78
2021/12/18 04:28:26;;;;;;;;;;;-1.90;90.90;;;;;;6043846;23;19925;-80
2021/12/18 04:30:54;;;;;;;;;;;-1.90;90.40;;;;;;6044158;23;20427;-77
2021/12/18 04:33:20;;;;;;;;;;;-1.90;90.40;;;;;;6040293;23;19921;-78
2021/12/18 04:35:47;;;;;;;;;;;-1.90;90.50;;;;;;6042901;23;19924;-80
2021/12/18 04:38:14;;;;;;;;;;;-1.90;90.40;;;;;;6043345;23;19950;-79
2021/12/18 04:40:43;;;;;;;;;;;-2.00;90.20;;;;;;6043904;23;19921;-77
2021/12/18 04:43:09;;;;;;;;;;;-2.00;90.20;;;;;;6018287;23;19917;-79
2021/12/18 04:45:36;;;;;;;;;;;-2.00;90.50;;;;;;6043845;23;19918;-78
2021/12/18 04:48:03;;;;;;;;;;;-2.10;90.30;;;;;;6043786;23;20343;-77
2021/12/18 04:50:30;;;;;;;;;;;-2.10;90.50;;;;;;6019107;23;19917;-79
2021/12/18 04:52:57;;;;;;;;;;;-2.10;90.30;;;;;;6043764;23;19918;-80
2021/12/18 04:55:24;;;;;;;;;;;-2.20;90.20;;;;;;6043477;23;19923;-77
2021/12/18 04:57:52;;;;;;;;;;;-2.20;90.60;;;;;;6043484;23;19969;-80
2021/12/18 05:00:20;;;;;;;;;;;-2.20;90.40;;;;;;6042070;23;19918;-80
2021/12/18 05:02:49;;;;;;;;;;;-2.20;90.50;;;;;;6042798;23;20263;-79
2021/12/18 05:05:17;;;;;;;;;;;-2.20;90.40;;;;;;6043237;23;19924;-78
2021/12/18 05:07:43;;;;;;;;;;;-2.20;90.30;;;;;;6043682;23;19926;-80
2021/12/18 05:10:11;;;;;;;;;;;-2.20;90.30;;;;;;6043290;23;19917;-77
2021/12/18 05:12:39;;;;;;;;;;;-2.20;90.90;;;;;;6043874;23;19949;-81
2021/12/18 05:15:06;;;;;;;;;;;-2.10;91.10;;;;;;6043584;23;20387;-80
2021/12/18 05:17:33;;;;;;;;;;;-2.10;90.90;;;;;;6066853;23;19925;-79
2021/12/18 05:20:00;;;;;;;;;;;-2.10;90.70;;;;;;6043353;23;20441;-79
2021/12/18 05:22:27;;;;;;;;;;;-2.20;90.60;;;;;;6042868;23;19917;-78
2021/12/18 05:24:53;;;;;;;;;;;-2.20;90.70;;;;;;6043047;23;20336;-80
2021/12/18 05:27:20;;;;;;;;;;;-2.20;91.80;;;;;;6042909;23;20395;-77
2021/12/18 05:29:47;;;;;;;;;;;-2.20;91.60;;;;;;6044179;23;19921;-78
2021/12/18 05:32:14;;;;;;;;;;;-2.20;91.40;;;;;;6067495;23;19924;-77
2021/12/18 05:34:41;;;;;;;;;;;-2.30;91.10;;;;;;6043485;23;19918;-80
2021/12/18 05:37:18;;;;;;;;;;;-2.30;91.20;;;;;;6043438;23;19921;-79
2021/12/18 05:39:46;;;;;;;;;;;-2.30;91.20;;;;;;6042390;23;20693;-77
2021/12/18 05:42:14;;;;;;;;;;;-2.30;91.20;;;;;;6067225;23;19925;-79
2021/12/18 05:44:41;;;;;;;;;;;-2.30;91.30;;;;;;6066540;23;19977;-80
2021/12/18 05:47:08;;;;;;;;;;;-2.30;91.50;;;;;;6043402;23;19973;-78
2021/12/18 05:49:35;;;;;;;;;;;-2.30;91.60;;;;;;6042958;23;19954;-78
2021/12/18 05:52:02;;;;;;;;;;;-2.40;91.40;;;;;;6043079;23;19921;-77
2021/12/18 05:54:34;;;;;;;;;;;-2.50;91.40;;;;;;6043100;23;19922;-80
2021/12/18 05:57:09;;;;;;;;;;;-2.50;91.60;;;;;;6043556;23;19922;-79
2021/12/18 05:59:36;;;;;;;;;;;-2.50;91.50;;;;;;6043018;23;19924;-77
2021/12/18 06:02:03;;;;;;;;;;;-2.50;91.50;;;;;;6044661;23;19921;-78
2021/12/18 06:04:30;;;;;;;;;;;-2.50;91.40;;;;;;6044282;23;19917;-78
2021/12/18 06:07:03;;;;;;;;;;;-2.50;91.30;;;;;;6045002;23;19921;-80
2021/12/18 06:09:34;;;;;;;;;;;-2.50;91.30;;;;;;6045951;23;19985;-78
2021/12/18 06:12:02;;;;;;;;;;;-2.40;91.30;;;;;;6045005;23;19923;-78
2021/12/18 06:14:29;;;;;;;;;;;-2.40;91.50;;;;;;6069854;23;20296;-77
2021/12/18 06:16:55;;;;;;;;;;;-2.40;91.60;;;;;;6045951;23;20004;-78
2021/12/18 06:19:22;;;;;;;;;;;-2.30;91.50;;;;;;6043635;23;19922;-80
2021/12/18 06:21:49;;;;;;;;;;;-2.30;91.50;;;;;;6045312;23;19917;-77
2021/12/18 06:24:16;;;;;;;;;;;-2.20;91.40;;;;;;6044870;23;19949;-80
2021/12/18 06:26:44;;;;;;;;;;;-2.20;91.40;;;;;;6043924;23;19933;-78
2021/12/18 06:29:11;;;;;;;;;;;-2.20;91.50;;;;;;6044102;23;19949;-77
2021/12/18 06:31:39;;;;;;;;;;;-2.20;91.40;;;;;;6043362;23;20351;-78
2021/12/18 06:34:06;;;;;;;;;;;-2.30;91.20;;;;;;6044866;23;19917;-80
2021/12/18 06:36:33;;;;;;;;;;;-2.30;91.10;;;;;;6044393;23;19921;-78
2021/12/18 06:39:00;;;;;;;;;;;-2.30;91.00;;;;;;6044859;23;19995;-77
2021/12/18 06:41:27;;;;;;;;;;;-2.30;90.90;;;;;;6068621;23;19917;-78
2021/12/18 06:43:53;;;;;;;;;;;-2.30;90.90;;;;;;6042494;23;19922;-77
2021/12/18 06:46:21;;;;;;;;;;;-2.40;90.80;;;;;;6044223;23;20339;-80
2021/12/18 06:48:48;;;;;;;;;;;-2.40;90.80;;;;;;6044015;23;20726;-79
2021/12/18 06:51:20;;;;;;;;;;;-2.40;90.80;;;;;;6044983;23;19918;-79
2021/12/18 06:53:47;;;;;;;;;;;-2.40;91.20;;;;;;6043511;23;19973;-80
2021/12/18 06:56:14;;;;;;;;;;;-2.40;91.20;;;;;;6020506;23;19917;-77
2021/12/18 06:58:41;;;;;;;;;;;-2.50;91.00;;;;;;6043752;23;19968;-77
2021/12/18 07:01:08;;;;;;;;;;;-2.50;91.00;;;;;;6046472;23;19921;-79
2021/12/18 07:03:35;;;;;;;;;;;-2.50;91.30;;;;;;6043955;23;19917;-80
2021/12/18 07:06:02;;;;;;;;;;;-2.40;91.70;;;;;;6044259;23;19918;-80
2021/12/18 07:08:29;;;;;;;;;;;-2.40;91.60;;;;;;6045036;23;20251;-78
2021/12/18 07:10:56;;;;;;;;;;;-2.40;91.60;;;;;;6044159;23;19917;-80
2021/12/18 07:13:23;;;;;;;;;;;-2.40;91.50;;;;;;6044128;23;19925;-80
2021/12/18 07:15:51;;;;;;;;;;;-2.40;91.40;;;;;;6044051;23;19922;-78
2021/12/18 07:18:18;;;;;;;;;;;-2.40;91.30;;;;;;6069813;23;19917;-77
2021/12/18 07:20:45;;;;;;;;;;;-2.30;91.20;;;;;;6043868;23;20399;-77
2021/12/18 07:23:12;;;;;;;;;;;-2.30;91.30;;;;;;6044828;23;19925;-79
2021/12/18 07:25:39;;;;;;;;;;;-2.30;91.20;;;;;;6043643;23;20335;-79
2021/12/18 07:28:05;;;;;;;;;;;-2.30;91.30;;;;;;6044134;23;19917;-77
2021/12/18 07:30:32;;;;;;;;;;;-2.30;91.60;;;;;;6043758;23;19929;-80
2021/12/18 07:32:59;;;;;;;;;;;-2.40;91.50;;;;;;6020151;23;20338;-78
2021/12/18 07:35:26;;;;;;;;;;;-2.40;91.50;;;;;;6044878;23;19918;-78
2021/12/18 07:37:53;;;;;;;;;;;-2.40;91.60;;;;;;6069563;23;19921;-79
2021/12/18 07:40:20;;;;;;;;;;;-2.30;91.50;;;;;;6069044;23;19921;-78
2021/12/18 07:42:47;;;;;;;;;;;-1.70;91.60;;;;;;6043273;23;19929;-77
2021/12/18 07:45:13;;;;;;;;;;;-1.00;91.20;;;;;;6044563;23;19925;-79
2021/12/18 07:47:40;;;;;;;;;;;-0.30;90.20;;;;;;6044422;23;19929;-81
2021/12/18 07:50:12;;;;;;;;;;;0.30;87.80;;;;;;6043516;23;19924;-78
2021/12/18 07:52:39;;;;;;;;;;;0.90;85.10;;;;;;6045155;23;19985;-77
2021/12/18 07:55:06;;;;;;;;;;;1.30;81.00;;;;;;6046054;23;19918;-80
2021/12/18 07:57:34;;;;;;;;;;;1.60;79.30;;;;;;6042932;23;20332;-79
2021/12/18 08:00:03;;;;;;;;;;;1.80;78.00;;;;;;6044195;23;20232;-77
2021/12/18 08:02:33;;;;;;;;;;;1.90;78.00;;;;;;6069267;23;19917;-78
2021/12/18 08:05:00;;;;;;;;;;;1.80;77.80;;;;;;6045515;23;19970;-78
2021/12/18 08:07:27;;;;;;;;;;;1.60;78.50;;;;;;6069488;23;19918;-80
2021/12/18 08:09:54;;;;;;;;;;;1.40;79.70;;;;;;6068741;23;20476;-77
2021/12/18 08:12:21;;;;;;;;;;;1.40;80.10;;;;;;6047155;23;19927;-79
2021/12/18 08:14:48;;;;;;;;;;;1.30;80.40;;;;;;6042921;23;19937;-78
2021/12/18 08:17:15;;;;;;;;;;;1.30;80.10;;;;;;6044347;23;19917;-79
2021/12/18 08:19:45;;;;;;;;;;;1.30;81.40;;;;;;6044171;23;19957;-80
2021/12/18 08:22:12;;;;;;;;;;;1.30;81.80;;;;;;6044137;23;19969;-77
2021/12/18 08:24:38;;;;;;;;;;;1.40;82.50;;;;;;6046134;23;19922;-80
2021/12/18 08:27:05;;;;;;;;;;;1.40;82.60;;;;;;6046844;23;19940;-80
2021/12/18 08:29:32;;;;;;;;;;;1.50;83.30;;;;;;6070320;23;20402;-77
2021/12/18 08:31:59;;;;;;;;;;;1.30;85.00;;;;;;6044825;23;19922;-77
2021/12/18 08:34:26;;;;;;;;;;;1.10;86.60;;;;;;6044196;23;19933;-77
2021/12/18 08:36:53;;;;;;;;;;;1.30;86.50;;;;;;6047981;23;19925;-79
2021/12/18 08:39:25;;;;;;;;;;;1.40;86.10;;;;;;6048333;23;19969;-77
2021/12/18 08:41:52;;;;;;;;;;;1.70;85.00;;;;;;6043791;23;20300;-77
2021/12/18 08:44:19;;;;;;;;;;;1.80;84.50;;;;;;6042627;23;19921;-80
2021/12/18 08:46:46;;;;;;;;;;;1.90;84.30;;;;;;6045661;23;19918;-77
2021/12/18 08:49:13;;;;;;;;;;;2.10;84.80;;;;;;6046554;23;20008;-78
2021/12/18 08:51:39;;;;;;;;;;;2.30;84.70;;;;;;6042812;23;19917;-81
2021/12/18 08:54:07;;;;;;;;;;;2.40;84.10;;;;;;6044033;23;19917;-77
2021/12/18 08:56:34;;;;;;;;;;;2.60;84.60;;;;;;6044675;23;19932;-78
2021/12/18 08:59:01;;;;;;;;;;;2.60;84.30;;;;;;6045552;23;20407;-81
2021/12/18 09:01:28;;;;;;;;;;;2.70;84.40;;;;;;6068499;23;19928;-76
2021/12/18 09:03:55;;;;;;;;;;;2.70;84.40;;;;;;6042512;23;20350;-77
2021/12/18 09:06:23;;;;;;;;;;;2.80;85.00;;;;;;6043277;23;19917;-77
2021/12/18 09:08:51;;;;;;;;;;;2.80;85.70;;;;;;6066815;23;19925;-81
2021/12/18 09:11:18;;;;;;;;;;;2.90;85.80;;;;;;6042980;23;19918;-80
2021/12/18 09:13:45;;;;;;;;;;;3.00;86.30;;;;;;6068400;23;19926;-77
2021/12/18 09:16:17;;;;;;;;;;;3.10;86.10;;;;;;6045458;23;19948;-77
2021/12/18 09:18:43;;;;;;;;;;;3.20;85.10;;;;;;6042053;23;19921;-77
2021/12/18 09:21:10;;;;;;;;;;;3.30;85.40;;;;;;6042721;23;19972;-80
2021/12/18 09:23:37;;;;;;;;;;;3.40;85.60;;;;;;6041664;23;19917;-77
2021/12/18 09:26:04;;;;;;;;;;;3.50;85.00;;;;;;6042953;23;19921;-77
2021/12/18 09:28:31;;;;;;;;;;;3.50;84.30;;;;;;6043334;23;20288;-76
2021/12/18 09:30:58;;;;;;;;;;;3.50;85.40;;;;;;6042560;23;19951;-80
2021/12/18 09:33:26;;;;;;;;;;;3.60;85.60;;;;;;6043807;23;20190;-77
2021/12/18 09:35:53;;;;;;;;;;;3.60;85.70;;;;;;6076277;23;19946;-79
2021/12/18 09:38:20;;;;;;;;;;;3.70;85.10;;;;;;6051452;23;19922;-79
2021/12/18 09:40:47;;;;;;;;;;;3.70;84.40;;;;;;6046118;23;19977;-79
2021/12/18 09:43:14;;;;;;;;;;;3.80;83.70;;;;;;6049263;23;19950;-80
2021/12/18 09:45:46;;;;;;;;;;;3.90;82.50;;;;;;6043175;23;19921;-79
2021/12/18 09:48:13;;;;;;;;;;;4.00;81.90;;;;;;6043981;23;19928;-76
2021/12/18 09:50:42;;;;;;;;;;;4.10;81.90;;;;;;6041911;23;20296;-80
2021/12/18 09:53:09;;;;;;;;;;;4.20;80.10;;;;;;6047403;23;19934;-77
2021/12/18 09:55:36;;;;;;;;;;;4.40;81.50;;;;;;6050628;23;19933;-79
2021/12/18 09:58:03;;;;;;;;;;;4.50;80.50;;;;;;6051908;23;19930;-77
2021/12/18 10:00:31;;;;;;;;;;;4.60;80.30;;;;;;6042194;23;19936;-81
2021/12/18 10:02:58;;;;;;;;;;;4.80;79.60;;;;;;6041984;23;19932;-76
2021/12/18 10:05:26;;;;;;;;;;;5.00;78.50;;;;;;6068176;23;19926;-81
2021/12/18 10:08:10;;;;;;;;;;;5.20;78.10;;;;;;6045869;23;19925;-80
2021/12/18 10:10:38;;;;;;;;;;;5.40;76.60;;;;;;6047388;23;19944;-80
2021/12/18 10:13:06;;;;;;;;;;;5.50;74.20;;;;;;6043470;23;19965;-80
2021/12/18 10:15:33;;;;;;;;;;;5.70;74.80;;;;;;6051841;23;19913;-79
2021/12/18 10:18:07;;;;;;;;;;;5.80;72.20;;;;;;6042205;23;19969;-80
2021/12/18 10:20:34;;;;;;;;;;;5.90;72.50;;;;;;6046208;23;19922;-80
2021/12/18 10:23:04;;;;;;;;;;;6.00;71.20;;;;;;6049972;23;20296;-81
2021/12/18 10:25:36;;;;;;;;;;;6.20;69.60;;;;;;6049422;23;19922;-79
2021/12/18 10:28:08;;;;;;;;;;;6.40;68.10;;;;;;6049905;23;19922;-78
2021/12/18 10:30:41;;;;;;;;;;;6.60;68.30;;;;;;6051421;23;19932;-78
2021/12/18 10:33:11;;;;;;;;;;;6.80;68.20;;;;;;6044975;23;19930;-81
2021/12/18 10:35:38;;;;;;;;;;;6.90;66.30;;;;;;6047827;23;19925;-78
2021/12/18 10:38:05;;;;;;;;;;;7.10;65.80;;;;;;6044593;23;20284;-81
2021/12/18 10:40:44;;;;;;;;;;;7.20;65.60;;;;;;6047338;23;20028;-81
2021/12/18 10:43:11;;;;;;;;;;;7.30;64.80;;;;;;6042599;23;19926;-78
2021/12/18 10:45:38;;;;;;;;;;;7.40;64.80;;;;;;6051806;23;19922;-77
2021/12/18 10:48:06;;;;;;;;;;;7.40;65.70;;;;;;6041885;23;19973;-78
2021/12/18 10:50:40;;;;;;;;;;;7.50;65.90;;;;;;6044465;23;19925;-77
2021/12/18 10:53:18;;;;;;;;;;;7.50;64.00;;;;;;6046599;23;19922;-79
2021/12/18 10:55:49;;;;;;;;;;;7.60;64.30;;;;;;6047440;23;20304;-81
2021/12/18 10:58:24;;;;;;;22.88;15.40;;;7.70;64.00;;;;;;6047276;23;19926;-77
2021/12/18 11:01:15;;;;;;;29.27;20.05;;;7.70;63.90;;;;;;6047198;23;20407;-81
2021/12/18 11:03:48;;;;;;;24.52;19.08;;;7.80;63.90;;;;;;6046879;23;20403;-78
2021/12/18 11:06:24;;;;;;;22.35;18.17;;;7.80;64.10;;;;;;6049807;23;20379;-80
2021/12/18 11:09:05;;;;;;;24.50;18.60;;;8.00;64.90;;;;;;6048745;23;20387;-79
2021/12/18 11:14:40;;;;;;;26.90;21.58;;;8.30;62.50;;;;;;6066850;23;20820;-80
2021/12/18 11:17:13;;;;;;;30.63;24.27;;;8.50;63.10;;;;;;6049631;23;20379;-79
2021/12/18 11:19:41;;;;;;;;;;;8.70;62.10;;;;;;6057040;23;20626;-78
2021/12/18 11:22:17;;;;;;;29.63;21.70;;;8.90;61.50;;;;;;6054706;23;19924;-80
2021/12/18 11:24:59;;;;;;;41.20;30.25;;;8.80;61.50;;;;;;6073982;23;20030;-80
2021/12/18 11:27:28;;;;;;;43.60;35.55;;;8.90;62.50;;;;;;6044872;23;20391;-78
2021/12/18 11:30:06;;;;;;;39.28;32.97;;;9.10;62.80;;;;;;6043522;23;20386;-78
2021/12/18 11:32:39;;;;;;;39.67;31.40;;;9.20;61.30;;;;;;6070476;23;20390;-79
2021/12/18 11:35:14;;;;;;;40.45;33.25;;;9.30;61.10;;;;;;6048440;23;20383;-79
2021/12/18 11:37:46;;;;;;;38.40;31.70;;;9.40;61.50;;;;;;6041371;23;20379;-81
2021/12/18 11:40:24;;;;;;;36.80;29.98;;;9.50;60.90;;;;;;6044362;23;20387;-78
2021/12/18 11:42:51;;;;;;;33.95;28.15;;;9.60;61.00;;;;;;6044917;23;20371;-79
2021/12/18 11:45:19;;;;;;;35.17;28.73;;;9.70;60.90;;;;;;6047447;23;20800;-77
2021/12/18 11:47:56;;;;;;;35.28;29.05;;;9.80;60.00;;;;;;6045263;23;20379;-80
2021/12/18 11:50:35;;;;;;;35.42;29.73;;;10.00;60.00;;;;;;6046703;23;20387;-79
2021/12/18 11:53:06;;;;;;;33.42;27.20;;;10.20;58.70;;;;;;6042877;23;20431;-79
2021/12/18 11:55:48;;;;;;;30.33;25.90;;;10.20;57.90;;;;;;6048929;23;20407;-81
2021/12/18 11:58:16;;;;;;;28.15;23.45;;;10.20;57.90;;;;;;6044691;23;20409;-81
2021/12/18 12:00:59;;;;;;;29.38;24.85;;;10.10;58.10;;;;;;6052586;23;20386;-79
2021/12/18 12:03:31;;;;;;;29.48;25.20;;;10.10;58.30;;;;;;6043863;23;20375;-79
2021/12/18 12:06:01;;;;;;;29.67;25.38;;;10.10;59.70;;;;;;6046579;23;20735;-81
2021/12/18 12:08:40;;;;;;;29.08;23.33;;;10.10;58.00;;;;;;6046200;23;20029;-81
2021/12/18 12:11:15;;;;;;;;;;;10.10;58.40;;;;;;6046211;23;20034;-77
2021/12/18 12:14:02;;;;;;;;;;;10.20;59.00;;;;;;6044514;23;19985;-81
2021/12/18 12:16:40;;;;;;;;;;;10.10;57.90;;;;;;6045037;23;20354;-81
2021/12/18 12:19:08;;;;;;;;;;;10.10;59.00;;;;;;6044044;23;19942;-80
2021/12/18 12:21:39;;;;;;;;;;;10.20;59.00;;;;;;6048229;23;19917;-81
2021/12/18 12:24:06;;;;;;;;;;;10.30;57.90;;;;;;6046488;23;19969;-81
2021/12/18 12:26:33;;;;;;;;;;;10.20;57.40;;;;;;6048225;23;19921;-77
2021/12/18 12:28:59;;;;;;;;;;;10.20;57.80;;;;;;6045232;23;19918;-78
2021/12/18 12:31:27;;;;;;;;;;;10.30;58.00;;;;;;6049214;23;19917;-79
2021/12/18 21:37:13;;;;;;;;;;;-0.80;84.60;;;;;;6091966;23;19924;-79
2021/12/18 21:39:40;;;;;;;;;;;-0.80;84.70;;;;;;6072163;23;19917;-81
2021/12/18 21:42:07;;;;;;;;;;;-0.80;84.50;;;;;;6074838;23;19917;-81
2021/12/18 21:44:34;;;;;;;;;;;-0.80;84.70;;;;;;6074759;23;19928;-81
2021/12/18 21:47:01;;;;;;;;;;;-0.80;84.40;;;;;;6071521;23;19969;-80
2021/12/18 21:49:28;;;;;;;;;;;-0.80;84.70;;;;;;6074958;23;19921;-80
2021/12/18 21:51:55;;;;;;;;;;;-0.90;84.30;;;;;;6070881;23;19920;-80
2021/12/18 21:54:22;;;;;;;;;;;-0.90;84.10;;;;;;6071563;23;19984;-81
2021/12/18 21:56:49;;;;;;;;;;;-0.90;84.50;;;;;;6071001;23;19921;-80
2021/12/18 21:59:16;;;;;;;;;;;-0.90;85.30;;;;;;6075853;23;19957;-80
2021/12/18 22:01:43;;;;;;;;;;;-0.90;84.70;;;;;;6072513;23;20362;-81
2021/12/18 22:04:10;;;;;;;;;;;-1.00;85.30;;;;;;6071880;23;19918;-80
2021/12/18 22:06:38;;;;;;;;;;;-1.00;85.20;;;;;;6074756;23;19987;-79
2021/12/18 22:09:06;;;;;;;;;;;-1.00;85.50;;;;;;6097519;23;19917;-78
2021/12/18 22:11:44;;;;;;;;;;;-1.00;85.30;;;;;;6072755;23;19940;-80
2021/12/18 22:14:15;;;;;;;;;;;-1.10;85.30;;;;;;6051406;23;19940;-81
2021/12/18 22:16:42;;;;;;;;;;;-1.10;86.80;;;;;;6074210;23;19921;-78
2021/12/18 22:19:09;;;;;;;;;;;-1.20;89.50;;;;;;6072110;23;19917;-78
2021/12/18 22:21:36;;;;;;;;;;;-1.20;89.40;;;;;;6073785;23;19917;-80
2021/12/18 22:24:03;;;;;;;;;;;-1.20;88.50;;;;;;6074973;23;19968;-80
2021/12/18 22:26:30;;;;;;;;;;;-1.20;87.40;;;;;;6077483;23;20394;-80
2021/12/18 22:28:57;;;;;;;;;;;-1.30;87.20;;;;;;6096779;23;20343;-81
2021/12/18 22:31:24;;;;;;;;;;;-1.30;86.90;;;;;;6075592;23;19917;-81
2021/12/18 22:33:51;;;;;;;;;;;-1.30;86.50;;;;;;6073652;23;19917;-79
2021/12/18 22:36:18;;;;;;;;;;;-1.30;86.80;;;;;;6083355;23;19921;-81
2021/12/18 22:38:45;;;;;;;;;;;-1.30;86.80;;;;;;6100266;23;19916;-81
2021/12/18 22:41:12;;;;;;;;;;;-1.40;86.40;;;;;;6114060;23;19927;-81
2021/12/18 22:43:39;;;;;;;;;;;-1.40;86.40;;;;;;6107584;23;19917;-80
2021/12/18 22:46:09;;;;;;;;;;;-1.40;87.00;;;;;;6100883;23;20326;-80
2021/12/18 22:48:37;;;;;;;;;;;-1.40;86.70;;;;;;6108934;23;19916;-81
2021/12/18 22:51:04;;;;;;;;;;;-1.40;86.20;;;;;;6114325;23;19921;-80
2021/12/18 22:53:31;;;;;;;;;;;-1.40;86.70;;;;;;6105771;23;19924;-79
2021/12/18 22:56:01;;;;;;;;;;;-1.40;86.70;;;;;;6101330;23;19917;-80
2021/12/18 22:58:28;;;;;;;;;;;-1.40;86.20;;;;;;6111407;23;19924;-81
2021/12/18 23:01:07;;;;;;;;;;;-1.50;85.80;;;;;;6105882;23;19917;-80
2021/12/18 23:03:34;;;;;;;;;;;-1.50;85.70;;;;;;6102867;23;19971;-80
2021/12/18 23:06:02;;;;;;;;;;;-1.50;85.70;;;;;;6130983;23;19917;-80
2021/12/18 23:08:32;;;;;;;;;;;-1.50;86.10;;;;;;6141485;23;20253;-80
2021/12/18 23:10:59;;;;;;;;;;;-1.50;85.70;;;;;;6105689;23;19920;-79
2021/12/18 23:13:48;;;;;;;;;;;-1.60;85.30;;;;;;6114857;23;19937;-79
2021/12/18 23:21:48;;;;;;;;;;;-1.70;88.80;;;;;;6131744;23;20385;-81
2021/12/18 23:24:15;;;;;;;;;;;-1.70;88.90;;;;;;6102696;23;19917;-81
2021/12/18 23:26:43;;;;;;;;;;;-1.70;87.90;;;;;;6101382;23;19967;-80
2021/12/18 23:29:10;;;;;;;;;;;-1.70;86.80;;;;;;6105639;23;19917;-80
2021/12/18 23:31:37;;;;;;;;;;;-1.70;86.70;;;;;;6109501;23;19940;-78
2021/12/18 23:34:04;;;;;;;;;;;-1.70;86.80;;;;;;6103482;23;19923;-80
2021/12/18 23:36:32;;;;;;;;;;;-1.80;86.90;;;;;;6101388;23;19924;-81
2021/12/18 23:38:58;;;;;;;;;;;-1.70;88.40;;;;;;6080740;23;19917;-80
2021/12/18 23:41:28;;;;;;;;;;;-1.70;87.10;;;;;;6072942;23;19925;-80
2021/12/18 23:46:27;;;;;;;;;;;-1.80;86.50;;;;;;6075981;23;19918;-80
2021/12/18 23:46:54;;;;;;;;;;;-1.80;86.30;;;;;;6106251;23;19949;-79
2021/12/18 23:49:21;;;;;;;;;;;-1.80;86.20;;;;;;6084001;23;20365;-79
2021/12/18 23:51:48;;;;;;;;;;;-1.80;86.70;;;;;;6081815;23;19972;-80
2021/12/18 23:54:15;;;;;;;;;;;-1.90;86.20;;;;;;6073850;23;19964;-80
2021/12/18 23:56:42;;;;;;;;;;;-1.90;87.50;;;;;;6074355;23;19917;-80
2021/12/18 23:59:09;;;;;;;;;;;-1.90;87.00;;;;;;6074158;23;20365;-81
